sensor_id;sensor_type;location;lat;lon;timestamp;P1;durP1;ratioP1;P2;durP2;ratioP2
68757;SDS011;55747;51.998;4.466;2023-03-05T00:00:44;9.80;;;1.90;;
68757;SDS011;55747;51.998;4.466;2023-03-05T00:03:09;12.82;;;2.15;;
68757;SDS011;55747;51.998;4.466;2023-03-05T00:05:35;13.02;;;1.90;;
68757;SDS011;55747;51.998;4.466;2023-03-05T00:08:00;15.05;;;2.42;;
68757;SDS011;55747;51.998;4.466;2023-03-05T00:10:29;9.02;;;1.88;;
68757;SDS011;55747;51.998;4.466;2023-03-05T00:12:54;10.48;;;1.70;;
68757;SDS011;55747;51.998;4.466;2023-03-05T00:15:19;8.18;;;1.48;;
68757;SDS011;55747;51.998;4.466;2023-03-05T00:17:44;14.20;;;1.70;;
68757;SDS011;55747;51.998;4.466;2023-03-05T00:20:10;6.65;;;1.55;;
68757;SDS011;55747;51.998;4.466;2023-03-05T00:22:35;13.10;;;1.60;;
68757;SDS011;55747;51.998;4.466;2023-03-05T00:25:04;16.30;;;1.95;;
68757;SDS011;55747;51.998;4.466;2023-03-05T00:27:30;11.00;;;1.80;;
68757;SDS011;55747;51.998;4.466;2023-03-05T00:29:55;11.55;;;1.95;;
68757;SDS011;55747;51.998;4.466;2023-03-05T00:32:21;11.43;;;1.90;;
68757;SDS011;55747;51.998;4.466;2023-03-05T00:34:46;7.25;;;1.50;;
68757;SDS011;55747;51.998;4.466;2023-03-05T00:37:13;14.40;;;1.70;;
68757;SDS011;55747;51.998;4.466;2023-03-05T00:39:39;7.88;;;1.73;;
68757;SDS011;55747;51.998;4.466;2023-03-05T00:42:04;13.32;;;1.80;;
68757;SDS011;55747;51.998;4.466;2023-03-05T00:44:30;10.02;;;2.20;;
68757;SDS011;55747;51.998;4.466;2023-03-05T00:46:55;5.80;;;1.83;;
68757;SDS011;55747;51.998;4.466;2023-03-05T00:49:21;8.70;;;1.80;;
68757;SDS011;55747;51.998;4.466;2023-03-05T00:51:46;5.88;;;1.55;;
68757;SDS011;55747;51.998;4.466;2023-03-05T00:54:12;11.02;;;1.50;;
68757;SDS011;55747;51.998;4.466;2023-03-05T00:56:38;6.95;;;1.75;;
68757;SDS011;55747;51.998;4.466;2023-03-05T00:59:03;12.48;;;1.80;;
68757;SDS011;55747;51.998;4.466;2023-03-05T01:01:28;8.65;;;1.60;;
68757;SDS011;55747;51.998;4.466;2023-03-05T01:03:54;6.47;;;1.63;;
68757;SDS011;55747;51.998;4.466;2023-03-05T01:06:21;8.07;;;1.50;;
68757;SDS011;55747;51.998;4.466;2023-03-05T01:08:46;8.32;;;1.60;;
68757;SDS011;55747;51.998;4.466;2023-03-05T01:11:12;6.03;;;1.38;;
68757;SDS011;55747;51.998;4.466;2023-03-05T01:13:38;8.38;;;1.77;;
68757;SDS011;55747;51.998;4.466;2023-03-05T01:16:03;10.50;;;2.08;;
68757;SDS011;55747;51.998;4.466;2023-03-05T01:18:29;9.18;;;2.08;;
68757;SDS011;55747;51.998;4.466;2023-03-05T01:20:54;11.02;;;1.70;;
68757;SDS011;55747;51.998;4.466;2023-03-05T01:23:20;9.18;;;1.85;;
68757;SDS011;55747;51.998;4.466;2023-03-05T01:25:51;8.65;;;1.83;;
68757;SDS011;55747;51.998;4.466;2023-03-05T01:28:17;6.85;;;1.77;;
68757;SDS011;55747;51.998;4.466;2023-03-05T01:30:42;7.38;;;1.65;;
68757;SDS011;55747;51.998;4.466;2023-03-05T01:33:08;9.25;;;1.95;;
68757;SDS011;55747;51.998;4.466;2023-03-05T01:35:33;8.15;;;1.77;;
68757;SDS011;55747;51.998;4.466;2023-03-05T01:37:58;10.45;;;1.58;;
68757;SDS011;55747;51.998;4.466;2023-03-05T01:40:24;12.07;;;1.80;;
68757;SDS011;55747;51.998;4.466;2023-03-05T01:45:35;7.22;;;1.83;;
68757;SDS011;55747;51.998;4.466;2023-03-05T01:48:01;5.75;;;1.77;;
68757;SDS011;55747;51.998;4.466;2023-03-05T01:50:27;7.15;;;1.70;;
68757;SDS011;55747;51.998;4.466;2023-03-05T01:53:00;5.00;;;1.80;;
68757;SDS011;55747;51.998;4.466;2023-03-05T01:55:28;8.10;;;1.70;;
68757;SDS011;55747;51.998;4.466;2023-03-05T01:57:58;7.75;;;1.80;;
68757;SDS011;55747;51.998;4.466;2023-03-05T02:00:28;9.43;;;2.10;;
68757;SDS011;55747;51.998;4.466;2023-03-05T02:02:59;10.73;;;2.28;;
68757;SDS011;55747;51.998;4.466;2023-03-05T02:05:31;12.50;;;1.80;;
68757;SDS011;55747;51.998;4.466;2023-03-05T02:07:59;7.72;;;1.80;;
68757;SDS011;55747;51.998;4.466;2023-03-05T02:10:28;8.10;;;1.63;;
68757;SDS011;55747;51.998;4.466;2023-03-05T02:12:56;5.35;;;1.67;;
68757;SDS011;55747;51.998;4.466;2023-03-05T02:15:25;8.23;;;1.90;;
68757;SDS011;55747;51.998;4.466;2023-03-05T02:17:50;6.60;;;2.05;;
68757;SDS011;55747;51.998;4.466;2023-03-05T02:20:17;11.25;;;2.55;;
68757;SDS011;55747;51.998;4.466;2023-03-05T02:25:16;7.70;;;2.00;;
68757;SDS011;55747;51.998;4.466;2023-03-05T02:27:43;10.13;;;2.20;;
68757;SDS011;55747;51.998;4.466;2023-03-05T02:30:15;10.25;;;2.28;;
68757;SDS011;55747;51.998;4.466;2023-03-05T02:32:41;10.52;;;3.03;;
68757;SDS011;55747;51.998;4.466;2023-03-05T02:35:06;6.55;;;2.00;;
68757;SDS011;55747;51.998;4.466;2023-03-05T02:37:34;6.07;;;2.00;;
68757;SDS011;55747;51.998;4.466;2023-03-05T02:39:59;7.75;;;2.22;;
68757;SDS011;55747;51.998;4.466;2023-03-05T02:42:25;9.23;;;2.17;;
68757;SDS011;55747;51.998;4.466;2023-03-05T02:44:50;8.80;;;2.10;;
68757;SDS011;55747;51.998;4.466;2023-03-05T02:47:15;13.68;;;2.15;;
68757;SDS011;55747;51.998;4.466;2023-03-05T02:49:41;10.18;;;2.30;;
68757;SDS011;55747;51.998;4.466;2023-03-05T02:52:06;12.60;;;2.47;;
68757;SDS011;55747;51.998;4.466;2023-03-05T02:54:32;9.82;;;2.30;;
68757;SDS011;55747;51.998;4.466;2023-03-05T02:56:57;10.35;;;1.90;;
68757;SDS011;55747;51.998;4.466;2023-03-05T02:59:22;4.65;;;1.52;;
68757;SDS011;55747;51.998;4.466;2023-03-05T03:01:47;5.38;;;1.23;;
68757;SDS011;55747;51.998;4.466;2023-03-05T03:04:15;9.93;;;1.80;;
68757;SDS011;55747;51.998;4.466;2023-03-05T03:06:41;5.05;;;1.17;;
68757;SDS011;55747;51.998;4.466;2023-03-05T03:09:06;7.65;;;2.00;;
68757;SDS011;55747;51.998;4.466;2023-03-05T03:11:31;8.77;;;2.00;;
68757;SDS011;55747;51.998;4.466;2023-03-05T03:13:58;7.80;;;1.60;;
68757;SDS011;55747;51.998;4.466;2023-03-05T03:16:23;6.13;;;2.10;;
68757;SDS011;55747;51.998;4.466;2023-03-05T03:18:48;14.07;;;2.63;;
68757;SDS011;55747;51.998;4.466;2023-03-05T03:21:18;9.32;;;2.78;;
68757;SDS011;55747;51.998;4.466;2023-03-05T03:23:46;9.50;;;2.45;;
68757;SDS011;55747;51.998;4.466;2023-03-05T03:26:11;8.57;;;2.28;;
68757;SDS011;55747;51.998;4.466;2023-03-05T03:28:36;8.18;;;2.50;;
68757;SDS011;55747;51.998;4.466;2023-03-05T03:31:02;9.50;;;2.65;;
68757;SDS011;55747;51.998;4.466;2023-03-05T03:33:27;7.50;;;2.90;;
68757;SDS011;55747;51.998;4.466;2023-03-05T03:35:53;8.07;;;2.88;;
68757;SDS011;55747;51.998;4.466;2023-03-05T03:38:18;11.15;;;2.80;;
68757;SDS011;55747;51.998;4.466;2023-03-05T03:40:43;7.82;;;2.25;;
68757;SDS011;55747;51.998;4.466;2023-03-05T03:43:09;5.32;;;2.00;;
68757;SDS011;55747;51.998;4.466;2023-03-05T03:45:34;7.95;;;2.40;;
68757;SDS011;55747;51.998;4.466;2023-03-05T03:47:59;7.88;;;2.10;;
68757;SDS011;55747;51.998;4.466;2023-03-05T03:50:25;3.67;;;1.55;;
68757;SDS011;55747;51.998;4.466;2023-03-05T03:52:50;4.18;;;1.00;;
68757;SDS011;55747;51.998;4.466;2023-03-05T03:55:16;12.93;;;1.17;;
68757;SDS011;55747;51.998;4.466;2023-03-05T03:57:41;3.28;;;0.90;;
68757;SDS011;55747;51.998;4.466;2023-03-05T04:00:08;8.35;;;1.33;;
68757;SDS011;55747;51.998;4.466;2023-03-05T04:02:35;4.53;;;0.80;;
68757;SDS011;55747;51.998;4.466;2023-03-05T04:05:00;5.22;;;0.90;;
68757;SDS011;55747;51.998;4.466;2023-03-05T04:07:29;3.22;;;0.73;;
68757;SDS011;55747;51.998;4.466;2023-03-05T04:09:54;0.98;;;0.40;;
68757;SDS011;55747;51.998;4.466;2023-03-05T04:12:19;4.22;;;0.60;;
68757;SDS011;55747;51.998;4.466;2023-03-05T04:14:48;4.32;;;0.70;;
68757;SDS011;55747;51.998;4.466;2023-03-05T04:17:14;3.67;;;0.60;;
68757;SDS011;55747;51.998;4.466;2023-03-05T04:19:40;2.78;;;0.70;;
68757;SDS011;55747;51.998;4.466;2023-03-05T04:22:10;1.95;;;0.70;;
68757;SDS011;55747;51.998;4.466;2023-03-05T04:24:39;3.42;;;0.70;;
68757;SDS011;55747;51.998;4.466;2023-03-05T04:27:05;1.65;;;0.50;;
68757;SDS011;55747;51.998;4.466;2023-03-05T04:29:31;7.00;;;0.65;;
68757;SDS011;55747;51.998;4.466;2023-03-05T04:31:56;2.50;;;0.60;;
68757;SDS011;55747;51.998;4.466;2023-03-05T04:34:25;4.07;;;0.70;;
68757;SDS011;55747;51.998;4.466;2023-03-05T04:36:50;1.45;;;0.60;;
68757;SDS011;55747;51.998;4.466;2023-03-05T04:39:15;2.88;;;0.52;;
68757;SDS011;55747;51.998;4.466;2023-03-05T04:41:41;2.22;;;0.70;;
68757;SDS011;55747;51.998;4.466;2023-03-05T04:44:06;1.88;;;0.55;;
68757;SDS011;55747;51.998;4.466;2023-03-05T04:46:32;4.28;;;0.82;;
68757;SDS011;55747;51.998;4.466;2023-03-05T04:48:57;5.90;;;1.40;;
68757;SDS011;55747;51.998;4.466;2023-03-05T04:51:23;3.60;;;0.90;;
68757;SDS011;55747;51.998;4.466;2023-03-05T04:53:49;3.28;;;0.75;;
68757;SDS011;55747;51.998;4.466;2023-03-05T04:56:14;2.10;;;0.70;;
68757;SDS011;55747;51.998;4.466;2023-03-05T04:58:39;6.63;;;1.23;;
68757;SDS011;55747;51.998;4.466;2023-03-05T05:01:05;5.18;;;1.00;;
68757;SDS011;55747;51.998;4.466;2023-03-05T05:03:31;2.80;;;0.80;;
68757;SDS011;55747;51.998;4.466;2023-03-05T05:05:58;4.60;;;0.80;;
68757;SDS011;55747;51.998;4.466;2023-03-05T05:08:24;4.05;;;1.00;;
68757;SDS011;55747;51.998;4.466;2023-03-05T05:13:22;3.17;;;1.00;;
68757;SDS011;55747;51.998;4.466;2023-03-05T05:15:48;6.57;;;1.08;;
68757;SDS011;55747;51.998;4.466;2023-03-05T05:18:13;2.53;;;0.90;;
68757;SDS011;55747;51.998;4.466;2023-03-05T05:20:39;8.05;;;1.08;;
68757;SDS011;55747;51.998;4.466;2023-03-05T05:23:04;2.80;;;0.80;;
68757;SDS011;55747;51.998;4.466;2023-03-05T05:25:29;6.35;;;1.00;;
68757;SDS011;55747;51.998;4.466;2023-03-05T05:27:54;3.17;;;1.00;;
68757;SDS011;55747;51.998;4.466;2023-03-05T05:30:20;1.60;;;0.73;;
68757;SDS011;55747;51.998;4.466;2023-03-05T05:32:48;6.53;;;0.90;;
68757;SDS011;55747;51.998;4.466;2023-03-05T05:35:13;6.07;;;0.80;;
68757;SDS011;55747;51.998;4.466;2023-03-05T05:37:38;4.75;;;1.10;;
68757;SDS011;55747;51.998;4.466;2023-03-05T05:40:04;2.50;;;1.02;;
68757;SDS011;55747;51.998;4.466;2023-03-05T05:42:30;5.32;;;1.20;;
68757;SDS011;55747;51.998;4.466;2023-03-05T05:44:55;5.88;;;1.10;;
68757;SDS011;55747;51.998;4.466;2023-03-05T05:47:23;5.57;;;1.20;;
68757;SDS011;55747;51.998;4.466;2023-03-05T05:49:48;4.50;;;1.45;;
68757;SDS011;55747;51.998;4.466;2023-03-05T05:52:14;2.85;;;1.00;;
68757;SDS011;55747;51.998;4.466;2023-03-05T05:54:39;2.30;;;0.98;;
68757;SDS011;55747;51.998;4.466;2023-03-05T05:57:05;3.10;;;1.20;;
68757;SDS011;55747;51.998;4.466;2023-03-05T05:59:30;7.75;;;1.30;;
68757;SDS011;55747;51.998;4.466;2023-03-05T06:01:56;3.47;;;1.30;;
68757;SDS011;55747;51.998;4.466;2023-03-05T06:04:21;3.50;;;1.20;;
68757;SDS011;55747;51.998;4.466;2023-03-05T06:06:46;6.45;;;1.40;;
68757;SDS011;55747;51.998;4.466;2023-03-05T06:09:12;5.50;;;1.58;;
68757;SDS011;55747;51.998;4.466;2023-03-05T06:11:37;5.47;;;1.52;;
68757;SDS011;55747;51.998;4.466;2023-03-05T06:14:02;4.68;;;1.50;;
68757;SDS011;55747;51.998;4.466;2023-03-05T06:16:28;5.75;;;1.40;;
68757;SDS011;55747;51.998;4.466;2023-03-05T06:18:54;1.63;;;1.10;;
68757;SDS011;55747;51.998;4.466;2023-03-05T06:21:20;3.30;;;1.15;;
68757;SDS011;55747;51.998;4.466;2023-03-05T06:23:46;4.35;;;1.20;;
68757;SDS011;55747;51.998;4.466;2023-03-05T06:26:20;5.80;;;1.10;;
68757;SDS011;55747;51.998;4.466;2023-03-05T06:28:58;5.53;;;1.02;;
68757;SDS011;55747;51.998;4.466;2023-03-05T06:31:24;2.90;;;1.00;;
68757;SDS011;55747;51.998;4.466;2023-03-05T06:33:54;3.83;;;1.30;;
68757;SDS011;55747;51.998;4.466;2023-03-05T06:42:33;2.63;;;1.10;;
68757;SDS011;55747;51.998;4.466;2023-03-05T06:45:31;4.43;;;1.20;;
68757;SDS011;55747;51.998;4.466;2023-03-05T06:48:19;7.22;;;1.10;;
68757;SDS011;55747;51.998;4.466;2023-03-05T06:51:20;6.95;;;1.33;;
68757;SDS011;55747;51.998;4.466;2023-03-05T06:54:20;2.85;;;1.10;;
68757;SDS011;55747;51.998;4.466;2023-03-05T06:57:04;2.20;;;0.90;;
68757;SDS011;55747;51.998;4.466;2023-03-05T06:59:52;2.88;;;1.10;;
68757;SDS011;55747;51.998;4.466;2023-03-05T07:02:59;3.63;;;1.05;;
68757;SDS011;55747;51.998;4.466;2023-03-05T07:05:59;4.40;;;0.93;;
68757;SDS011;55747;51.998;4.466;2023-03-05T07:08:45;5.43;;;0.88;;
68757;SDS011;55747;51.998;4.466;2023-03-05T07:11:31;5.40;;;1.00;;
68757;SDS011;55747;51.998;4.466;2023-03-05T07:14:35;3.60;;;1.00;;
68757;SDS011;55747;51.998;4.466;2023-03-05T07:17:27;4.82;;;1.30;;
68757;SDS011;55747;51.998;4.466;2023-03-05T07:21:07;3.65;;;1.02;;
68757;SDS011;55747;51.998;4.466;2023-03-05T08:06:11;3.83;;;0.95;;
68757;SDS011;55747;51.998;4.466;2023-03-05T08:09:02;3.65;;;0.90;;
68757;SDS011;55747;51.998;4.466;2023-03-05T08:11:37;2.15;;;0.80;;
68757;SDS011;55747;51.998;4.466;2023-03-05T08:14:39;2.72;;;0.68;;
68757;SDS011;55747;51.998;4.466;2023-03-05T08:17:45;3.28;;;0.88;;
68757;SDS011;55747;51.998;4.466;2023-03-05T08:21:01;3.75;;;0.70;;
68757;SDS011;55747;51.998;4.466;2023-03-05T08:26:56;6.53;;;0.65;;
68757;SDS011;55747;51.998;4.466;2023-03-05T08:30:09;2.70;;;0.77;;
68757;SDS011;55747;51.998;4.466;2023-03-05T08:32:55;3.38;;;0.85;;
68757;SDS011;55747;51.998;4.466;2023-03-05T08:36:01;3.00;;;0.57;;
68757;SDS011;55747;51.998;4.466;2023-03-05T08:39:17;2.38;;;0.60;;
68757;SDS011;55747;51.998;4.466;2023-03-05T08:42:15;2.75;;;0.70;;
68757;SDS011;55747;51.998;4.466;2023-03-05T08:47:57;2.67;;;0.88;;
68757;SDS011;55747;51.998;4.466;2023-03-05T08:50:23;5.57;;;0.98;;
68757;SDS011;55747;51.998;4.466;2023-03-05T08:52:51;2.10;;;0.70;;
68757;SDS011;55747;51.998;4.466;2023-03-05T08:55:16;3.80;;;1.05;;
68757;SDS011;55747;51.998;4.466;2023-03-05T08:57:46;5.72;;;0.80;;
68757;SDS011;55747;51.998;4.466;2023-03-05T09:00:12;3.17;;;0.80;;
68757;SDS011;55747;51.998;4.466;2023-03-05T09:02:42;3.40;;;1.00;;
68757;SDS011;55747;51.998;4.466;2023-03-05T09:07:57;3.25;;;0.50;;
68757;SDS011;55747;51.998;4.466;2023-03-05T09:13:51;4.45;;;0.60;;
68757;SDS011;55747;51.998;4.466;2023-03-05T09:23:11;1.77;;;0.60;;
68757;SDS011;55747;51.998;4.466;2023-03-05T09:50:32;3.55;;;0.60;;
68757;SDS011;55747;51.998;4.466;2023-03-05T09:56:38;3.35;;;0.70;;
68757;SDS011;55747;51.998;4.466;2023-03-05T10:02:11;3.88;;;0.77;;
68757;SDS011;55747;51.998;4.466;2023-03-05T10:07:25;4.40;;;0.60;;
68757;SDS011;55747;51.998;4.466;2023-03-05T10:13:03;2.70;;;0.80;;
68757;SDS011;55747;51.998;4.466;2023-03-05T10:15:49;1.65;;;0.80;;
68757;SDS011;55747;51.998;4.466;2023-03-05T10:18:40;3.90;;;0.57;;
68757;SDS011;55747;51.998;4.466;2023-03-05T10:21:27;3.67;;;0.75;;
68757;SDS011;55747;51.998;4.466;2023-03-05T10:30:03;1.50;;;0.60;;
68757;SDS011;55747;51.998;4.466;2023-03-05T10:34:54;1.80;;;0.60;;
68757;SDS011;55747;51.998;4.466;2023-03-05T10:40:40;2.70;;;0.73;;
68757;SDS011;55747;51.998;4.466;2023-03-05T10:45:42;2.60;;;0.60;;
68757;SDS011;55747;51.998;4.466;2023-03-05T10:51:17;2.60;;;0.52;;
68757;SDS011;55747;51.998;4.466;2023-03-05T10:56:43;1.42;;;0.50;;
68757;SDS011;55747;51.998;4.466;2023-03-05T10:59:09;1.75;;;0.60;;
68757;SDS011;55747;51.998;4.466;2023-03-05T11:01:34;3.50;;;1.07;;
68757;SDS011;55747;51.998;4.466;2023-03-05T11:04:05;1.45;;;0.50;;
68757;SDS011;55747;51.998;4.466;2023-03-05T11:06:33;4.05;;;0.60;;
68757;SDS011;55747;51.998;4.466;2023-03-05T11:12:00;2.97;;;0.52;;
68757;SDS011;55747;51.998;4.466;2023-03-05T11:14:33;1.50;;;0.60;;
68757;SDS011;55747;51.998;4.466;2023-03-05T11:17:00;3.55;;;0.50;;
68757;SDS011;55747;51.998;4.466;2023-03-05T11:19:29;1.73;;;0.65;;
68757;SDS011;55747;51.998;4.466;2023-03-05T11:24:43;2.35;;;0.55;;
68757;SDS011;55747;51.998;4.466;2023-03-05T11:30:17;2.80;;;0.50;;
68757;SDS011;55747;51.998;4.466;2023-03-05T11:35:39;2.33;;;0.57;;
68757;SDS011;55747;51.998;4.466;2023-03-05T11:38:14;2.65;;;0.63;;
68757;SDS011;55747;51.998;4.466;2023-03-05T11:40:48;3.00;;;0.50;;
68757;SDS011;55747;51.998;4.466;2023-03-05T11:43:17;2.60;;;0.50;;
68757;SDS011;55747;51.998;4.466;2023-03-05T11:45:44;1.33;;;0.60;;
68757;SDS011;55747;51.998;4.466;2023-03-05T11:48:12;1.60;;;0.50;;
68757;SDS011;55747;51.998;4.466;2023-03-05T11:50:40;2.33;;;0.50;;
68757;SDS011;55747;51.998;4.466;2023-03-05T11:53:19;2.15;;;0.60;;
68757;SDS011;55747;51.998;4.466;2023-03-05T11:55:51;1.52;;;0.63;;
68757;SDS011;55747;51.998;4.466;2023-03-05T11:58:26;2.85;;;0.70;;
68757;SDS011;55747;51.998;4.466;2023-03-05T12:01:05;2.53;;;0.77;;
68757;SDS011;55747;51.998;4.466;2023-03-05T12:03:40;2.00;;;0.50;;
68757;SDS011;55747;51.998;4.466;2023-03-05T12:06:53;4.80;;;0.90;;
68757;SDS011;55747;51.998;4.466;2023-03-05T12:09:25;0.77;;;0.50;;
68757;SDS011;55747;51.998;4.466;2023-03-05T12:17:32;5.07;;;0.50;;
68757;SDS011;55747;51.998;4.466;2023-03-05T12:20:05;2.05;;;0.65;;
68757;SDS011;55747;51.998;4.466;2023-03-05T12:22:47;3.17;;;0.52;;
68757;SDS011;55747;51.998;4.466;2023-03-05T12:27:59;1.15;;;0.40;;
68757;SDS011;55747;51.998;4.466;2023-03-05T12:30:52;3.03;;;0.70;;
68757;SDS011;55747;51.998;4.466;2023-03-05T12:51:48;1.15;;;0.60;;
68757;SDS011;55747;51.998;4.466;2023-03-05T12:56:59;1.25;;;0.60;;
68757;SDS011;55747;51.998;4.466;2023-03-05T12:59:30;2.35;;;0.70;;
68757;SDS011;55747;51.998;4.466;2023-03-05T13:02:08;3.03;;;0.73;;
68757;SDS011;55747;51.998;4.466;2023-03-05T13:04:43;2.05;;;0.90;;
68757;SDS011;55747;51.998;4.466;2023-03-05T13:07:14;2.28;;;0.77;;
68757;SDS011;55747;51.998;4.466;2023-03-05T13:09:50;2.72;;;0.90;;
68757;SDS011;55747;51.998;4.466;2023-03-05T13:12:16;2.33;;;0.70;;
68757;SDS011;55747;51.998;4.466;2023-03-05T13:14:46;2.30;;;0.60;;
68757;SDS011;55747;51.998;4.466;2023-03-05T13:17:29;2.13;;;0.73;;
68757;SDS011;55747;51.998;4.466;2023-03-05T13:20:00;2.17;;;0.52;;
68757;SDS011;55747;51.998;4.466;2023-03-05T13:25:43;5.43;;;0.93;;
68757;SDS011;55747;51.998;4.466;2023-03-05T13:28:10;4.43;;;0.73;;
68757;SDS011;55747;51.998;4.466;2023-03-05T13:30:41;3.05;;;0.68;;
68757;SDS011;55747;51.998;4.466;2023-03-05T13:33:15;2.88;;;0.60;;
68757;SDS011;55747;51.998;4.466;2023-03-05T13:35:43;2.70;;;0.70;;
68757;SDS011;55747;51.998;4.466;2023-03-05T13:38:27;1.67;;;0.73;;
68757;SDS011;55747;51.998;4.466;2023-03-05T13:49:58;2.45;;;0.65;;
68757;SDS011;55747;51.998;4.466;2023-03-05T13:52:35;1.35;;;0.63;;
68757;SDS011;55747;51.998;4.466;2023-03-05T13:55:11;3.28;;;0.60;;
68757;SDS011;55747;51.998;4.466;2023-03-05T13:57:42;3.00;;;0.70;;
68757;SDS011;55747;51.998;4.466;2023-03-05T14:00:23;0.70;;;0.40;;
68757;SDS011;55747;51.998;4.466;2023-03-05T14:03:08;2.55;;;0.55;;
68757;SDS011;55747;51.998;4.466;2023-03-05T14:05:47;1.90;;;0.50;;
68757;SDS011;55747;51.998;4.466;2023-03-05T14:08:24;2.25;;;0.55;;
68757;SDS011;55747;51.998;4.466;2023-03-05T14:10:56;1.08;;;0.57;;
68757;SDS011;55747;51.998;4.466;2023-03-05T14:13:35;3.42;;;0.60;;
68757;SDS011;55747;51.998;4.466;2023-03-05T14:16:07;2.38;;;0.50;;
68757;SDS011;55747;51.998;4.466;2023-03-05T14:18:37;1.48;;;0.47;;
68757;SDS011;55747;51.998;4.466;2023-03-05T14:21:22;0.88;;;0.60;;
68757;SDS011;55747;51.998;4.466;2023-03-05T14:23:51;2.78;;;0.50;;
68757;SDS011;55747;51.998;4.466;2023-03-05T14:28:52;0.75;;;0.40;;
68757;SDS011;55747;51.998;4.466;2023-03-05T14:31:48;2.33;;;0.60;;
68757;SDS011;55747;51.998;4.466;2023-03-05T14:34:28;1.02;;;0.45;;
68757;SDS011;55747;51.998;4.466;2023-03-05T14:37:03;4.05;;;0.70;;
68757;SDS011;55747;51.998;4.466;2023-03-05T14:39:48;8.15;;;0.70;;
68757;SDS011;55747;51.998;4.466;2023-03-05T14:43:07;2.38;;;0.40;;
68757;SDS011;55747;51.998;4.466;2023-03-05T14:45:44;1.65;;;0.50;;
68757;SDS011;55747;51.998;4.466;2023-03-05T14:48:18;0.82;;;0.50;;
68757;SDS011;55747;51.998;4.466;2023-03-05T14:59:16;1.17;;;0.50;;
68757;SDS011;55747;51.998;4.466;2023-03-05T15:01:56;2.25;;;0.57;;
68757;SDS011;55747;51.998;4.466;2023-03-05T15:08:09;0.75;;;0.43;;
68757;SDS011;55747;51.998;4.466;2023-03-05T15:17:36;2.00;;;0.60;;
68757;SDS011;55747;51.998;4.466;2023-03-05T15:20:58;2.63;;;0.60;;
68757;SDS011;55747;51.998;4.466;2023-03-05T15:26:59;2.25;;;0.60;;
68757;SDS011;55747;51.998;4.466;2023-03-05T15:32:47;1.10;;;0.50;;
68757;SDS011;55747;51.998;4.466;2023-03-05T15:35:55;2.85;;;0.80;;
68757;SDS011;55747;51.998;4.466;2023-03-05T15:38:28;2.58;;;0.70;;
68757;SDS011;55747;51.998;4.466;2023-03-05T15:41:02;1.77;;;0.82;;
68757;SDS011;55747;51.998;4.466;2023-03-05T15:44:03;1.48;;;0.60;;
68757;SDS011;55747;51.998;4.466;2023-03-05T15:46:34;4.03;;;0.70;;
68757;SDS011;55747;51.998;4.466;2023-03-05T15:49:49;1.70;;;0.55;;
68757;SDS011;55747;51.998;4.466;2023-03-05T15:52:43;0.93;;;0.60;;
68757;SDS011;55747;51.998;4.466;2023-03-05T15:55:14;2.33;;;1.00;;
68757;SDS011;55747;51.998;4.466;2023-03-05T16:01:00;3.10;;;0.60;;
68757;SDS011;55747;51.998;4.466;2023-03-05T16:03:50;1.27;;;0.60;;
68757;SDS011;55747;51.998;4.466;2023-03-05T16:06:44;1.27;;;0.70;;
68757;SDS011;55747;51.998;4.466;2023-03-05T16:12:28;2.10;;;0.73;;
68757;SDS011;55747;51.998;4.466;2023-03-05T16:15:42;3.92;;;1.10;;
68757;SDS011;55747;51.998;4.466;2023-03-05T16:18:42;2.63;;;1.05;;
68757;SDS011;55747;51.998;4.466;2023-03-05T16:21:20;2.03;;;1.00;;
68757;SDS011;55747;51.998;4.466;2023-03-05T16:23:55;2.25;;;0.88;;
68757;SDS011;55747;51.998;4.466;2023-03-05T16:30:48;3.20;;;0.80;;
68757;SDS011;55747;51.998;4.466;2023-03-05T16:41:58;2.60;;;0.70;;
68757;SDS011;55747;51.998;4.466;2023-03-05T16:44:46;0.98;;;0.60;;
68757;SDS011;55747;51.998;4.466;2023-03-05T16:47:29;1.52;;;0.60;;
68757;SDS011;55747;51.998;4.466;2023-03-05T16:49:58;0.50;;;0.50;;
68757;SDS011;55747;51.998;4.466;2023-03-05T16:52:35;1.63;;;0.80;;
68757;SDS011;55747;51.998;4.466;2023-03-05T16:58:21;1.40;;;1.05;;
68757;SDS011;55747;51.998;4.466;2023-03-05T17:00:47;3.17;;;1.55;;
68757;SDS011;55747;51.998;4.466;2023-03-05T17:03:12;1.55;;;1.00;;
68757;SDS011;55747;51.998;4.466;2023-03-05T17:05:45;3.55;;;1.08;;
68757;SDS011;55747;51.998;4.466;2023-03-05T17:08:17;1.42;;;0.82;;
68757;SDS011;55747;51.998;4.466;2023-03-05T17:10:58;1.83;;;0.80;;
68757;SDS011;55747;51.998;4.466;2023-03-05T17:16:00;2.25;;;1.00;;
68757;SDS011;55747;51.998;4.466;2023-03-05T17:18:32;5.10;;;0.88;;
68757;SDS011;55747;51.998;4.466;2023-03-05T17:20:57;3.08;;;0.90;;
68757;SDS011;55747;51.998;4.466;2023-03-05T17:23:24;2.35;;;1.08;;
68757;SDS011;55747;51.998;4.466;2023-03-05T17:25:52;3.20;;;0.95;;
68757;SDS011;55747;51.998;4.466;2023-03-05T17:28:17;2.47;;;0.70;;
68757;SDS011;55747;51.998;4.466;2023-03-05T17:30:46;0.90;;;0.60;;
68757;SDS011;55747;51.998;4.466;2023-03-05T17:33:15;2.30;;;0.85;;
68757;SDS011;55747;51.998;4.466;2023-03-05T17:35:43;1.95;;;0.70;;
68757;SDS011;55747;51.998;4.466;2023-03-05T17:38:12;1.95;;;0.60;;
68757;SDS011;55747;51.998;4.466;2023-03-05T17:40:40;1.58;;;0.40;;
68757;SDS011;55747;51.998;4.466;2023-03-05T17:43:09;3.28;;;0.60;;
68757;SDS011;55747;51.998;4.466;2023-03-05T17:45:37;3.75;;;0.70;;
68757;SDS011;55747;51.998;4.466;2023-03-05T17:48:15;0.95;;;0.60;;
68757;SDS011;55747;51.998;4.466;2023-03-05T17:50:50;2.45;;;0.70;;
68757;SDS011;55747;51.998;4.466;2023-03-05T17:53:17;2.90;;;0.70;;
68757;SDS011;55747;51.998;4.466;2023-03-05T17:55:43;3.10;;;0.90;;
68757;SDS011;55747;51.998;4.466;2023-03-05T17:58:14;2.92;;;0.80;;
68757;SDS011;55747;51.998;4.466;2023-03-05T18:00:42;1.88;;;0.90;;
68757;SDS011;55747;51.998;4.466;2023-03-05T18:03:07;1.90;;;1.10;;
68757;SDS011;55747;51.998;4.466;2023-03-05T18:05:36;1.90;;;1.15;;
68757;SDS011;55747;51.998;4.466;2023-03-05T18:08:02;2.72;;;1.50;;
68757;SDS011;55747;51.998;4.466;2023-03-05T18:10:28;4.13;;;1.52;;
68757;SDS011;55747;51.998;4.466;2023-03-05T18:12:57;4.45;;;2.03;;
68757;SDS011;55747;51.998;4.466;2023-03-05T18:15:28;5.65;;;1.80;;
68757;SDS011;55747;51.998;4.466;2023-03-05T18:17:54;4.80;;;1.63;;
68757;SDS011;55747;51.998;4.466;2023-03-05T18:20:27;1.77;;;1.23;;
68757;SDS011;55747;51.998;4.466;2023-03-05T18:22:58;1.77;;;1.13;;
68757;SDS011;55747;51.998;4.466;2023-03-05T18:25:32;2.70;;;1.40;;
68757;SDS011;55747;51.998;4.466;2023-03-05T18:28:08;3.67;;;1.33;;
68757;SDS011;55747;51.998;4.466;2023-03-05T18:30:41;4.07;;;1.33;;
68757;SDS011;55747;51.998;4.466;2023-03-05T18:33:12;4.32;;;1.70;;
68757;SDS011;55747;51.998;4.466;2023-03-05T18:35:49;2.40;;;1.55;;
68757;SDS011;55747;51.998;4.466;2023-03-05T18:38:23;6.00;;;1.45;;
68757;SDS011;55747;51.998;4.466;2023-03-05T18:40:54;3.92;;;1.77;;
68757;SDS011;55747;51.998;4.466;2023-03-05T18:43:27;3.10;;;2.03;;
68757;SDS011;55747;51.998;4.466;2023-03-05T18:45:53;3.45;;;1.80;;
68757;SDS011;55747;51.998;4.466;2023-03-05T18:48:19;4.35;;;1.60;;
68757;SDS011;55747;51.998;4.466;2023-03-05T18:50:47;4.28;;;1.50;;
68757;SDS011;55747;51.998;4.466;2023-03-05T18:53:14;3.47;;;1.73;;
68757;SDS011;55747;51.998;4.466;2023-03-05T18:55:40;4.00;;;1.83;;
68757;SDS011;55747;51.998;4.466;2023-03-05T18:58:07;4.07;;;1.73;;
68757;SDS011;55747;51.998;4.466;2023-03-05T19:00:33;4.85;;;1.70;;
68757;SDS011;55747;51.998;4.466;2023-03-05T19:03:00;4.30;;;1.98;;
68757;SDS011;55747;51.998;4.466;2023-03-05T19:05:27;4.28;;;2.00;;
68757;SDS011;55747;51.998;4.466;2023-03-05T19:07:53;4.53;;;2.25;;
68757;SDS011;55747;51.998;4.466;2023-03-05T19:10:20;5.57;;;2.20;;
68757;SDS011;55747;51.998;4.466;2023-03-05T19:12:49;7.00;;;2.80;;
68757;SDS011;55747;51.998;4.466;2023-03-05T19:15:32;7.43;;;2.60;;